sensor_id;sensor_type;location;lat;lon;timestamp;temperature;humidity
38488;DHT22;57384;51.986;4.458;2023-06-10T00:00:38;24.40;42.90
38488;DHT22;57384;51.986;4.458;2023-06-10T00:03:05;24.40;43.00
38488;DHT22;57384;51.986;4.458;2023-06-10T00:05:31;24.30;43.00
38488;DHT22;57384;51.986;4.458;2023-06-10T00:07:58;24.30;43.10
38488;DHT22;57384;51.986;4.458;2023-06-10T00:10:24;24.20;43.10
38488;DHT22;57384;51.986;4.458;2023-06-10T00:12:51;24.20;43.20
38488;DHT22;57384;51.986;4.458;2023-06-10T00:15:18;24.10;43.30
38488;DHT22;57384;51.986;4.458;2023-06-10T00:17:44;24.10;43.30
38488;DHT22;57384;51.986;4.458;2023-06-10T00:20:11;24.10;43.40
38488;DHT22;57384;51.986;4.458;2023-06-10T00:22:37;24.00;44.00
38488;DHT22;57384;51.986;4.458;2023-06-10T00:25:07;24.00;43.50
38488;DHT22;57384;51.986;4.458;2023-06-10T00:27:33;23.90;43.50
38488;DHT22;57384;51.986;4.458;2023-06-10T00:30:01;23.90;43.50
38488;DHT22;57384;51.986;4.458;2023-06-10T00:32:28;23.80;43.60
38488;DHT22;57384;51.986;4.458;2023-06-10T00:34:54;23.80;43.70
38488;DHT22;57384;51.986;4.458;2023-06-10T00:37:21;23.70;43.70
38488;DHT22;57384;51.986;4.458;2023-06-10T00:39:48;23.70;43.70
38488;DHT22;57384;51.986;4.458;2023-06-10T00:42:14;23.60;43.70
38488;DHT22;57384;51.986;4.458;2023-06-10T00:44:41;23.50;43.80
38488;DHT22;57384;51.986;4.458;2023-06-10T00:47:07;23.50;43.90
38488;DHT22;57384;51.986;4.458;2023-06-10T00:49:34;23.50;43.90
38488;DHT22;57384;51.986;4.458;2023-06-10T00:52:04;23.40;43.90
38488;DHT22;57384;51.986;4.458;2023-06-10T00:54:31;23.40;44.00
38488;DHT22;57384;51.986;4.458;2023-06-10T00:57:00;23.30;44.00
38488;DHT22;57384;51.986;4.458;2023-06-10T00:59:28;23.30;44.00
38488;DHT22;57384;51.986;4.458;2023-06-10T01:01:56;23.30;44.10
38488;DHT22;57384;51.986;4.458;2023-06-10T01:04:28;23.20;44.10
38488;DHT22;57384;51.986;4.458;2023-06-10T01:09:22;23.20;44.20
38488;DHT22;57384;51.986;4.458;2023-06-10T01:12:01;23.10;44.20
38488;DHT22;57384;51.986;4.458;2023-06-10T01:14:29;23.10;44.20
38488;DHT22;57384;51.986;4.458;2023-06-10T01:16:57;23.00;44.20
38488;DHT22;57384;51.986;4.458;2023-06-10T01:19:24;23.00;44.30
38488;DHT22;57384;51.986;4.458;2023-06-10T01:21:53;22.90;44.30
38488;DHT22;57384;51.986;4.458;2023-06-10T01:24:27;22.90;44.30
38488;DHT22;57384;51.986;4.458;2023-06-10T01:26:53;22.80;44.40
38488;DHT22;57384;51.986;4.458;2023-06-10T01:29:25;22.80;44.40
38488;DHT22;57384;51.986;4.458;2023-06-10T01:31:58;22.70;44.50
38488;DHT22;57384;51.986;4.458;2023-06-10T01:34:26;22.70;44.50
38488;DHT22;57384;51.986;4.458;2023-06-10T01:36:53;22.60;44.50
38488;DHT22;57384;51.986;4.458;2023-06-10T01:39:22;22.60;44.60
38488;DHT22;57384;51.986;4.458;2023-06-10T01:41:54;22.60;44.60
38488;DHT22;57384;51.986;4.458;2023-06-10T01:44:24;22.50;44.60
38488;DHT22;57384;51.986;4.458;2023-06-10T01:46:58;22.50;44.60
38488;DHT22;57384;51.986;4.458;2023-06-10T01:49:27;22.50;44.70
38488;DHT22;57384;51.986;4.458;2023-06-10T01:51:53;22.40;44.70
38488;DHT22;57384;51.986;4.458;2023-06-10T01:54:22;22.40;44.70
38488;DHT22;57384;51.986;4.458;2023-06-10T01:56:49;22.30;44.70
38488;DHT22;57384;51.986;4.458;2023-06-10T01:59:15;22.30;44.80
38488;DHT22;57384;51.986;4.458;2023-06-10T02:01:42;22.30;44.80
38488;DHT22;57384;51.986;4.458;2023-06-10T02:04:08;22.30;44.90
38488;DHT22;57384;51.986;4.458;2023-06-10T02:06:36;22.20;44.90
38488;DHT22;57384;51.986;4.458;2023-06-10T02:09:02;22.20;45.00
38488;DHT22;57384;51.986;4.458;2023-06-10T02:11:29;22.10;45.00
38488;DHT22;57384;51.986;4.458;2023-06-10T02:13:55;22.10;45.00
38488;DHT22;57384;51.986;4.458;2023-06-10T02:16:22;22.00;45.00
38488;DHT22;57384;51.986;4.458;2023-06-10T02:18:49;22.00;45.00
38488;DHT22;57384;51.986;4.458;2023-06-10T02:21:15;22.00;45.10
38488;DHT22;57384;51.986;4.458;2023-06-10T02:23:44;21.90;45.10
38488;DHT22;57384;51.986;4.458;2023-06-10T02:26:11;21.90;45.30
38488;DHT22;57384;51.986;4.458;2023-06-10T02:28:37;21.80;45.10
38488;DHT22;57384;51.986;4.458;2023-06-10T02:31:04;21.80;45.20
38488;DHT22;57384;51.986;4.458;2023-06-10T02:33:30;21.80;45.20
38488;DHT22;57384;51.986;4.458;2023-06-10T02:35:57;21.80;45.30
38488;DHT22;57384;51.986;4.458;2023-06-10T02:38:24;21.70;45.20
38488;DHT22;57384;51.986;4.458;2023-06-10T02:40:50;21.70;45.30
38488;DHT22;57384;51.986;4.458;2023-06-10T02:43:17;21.70;45.30
38488;DHT22;57384;51.986;4.458;2023-06-10T02:45:43;21.60;45.30
38488;DHT22;57384;51.986;4.458;2023-06-10T02:48:10;21.60;45.40
38488;DHT22;57384;51.986;4.458;2023-06-10T02:50:36;21.50;45.40
38488;DHT22;57384;51.986;4.458;2023-06-10T02:53:05;21.50;45.40
38488;DHT22;57384;51.986;4.458;2023-06-10T02:55:32;21.50;45.50
38488;DHT22;57384;51.986;4.458;2023-06-10T02:57:58;21.50;45.50
38488;DHT22;57384;51.986;4.458;2023-06-10T03:00:31;21.40;45.50
38488;DHT22;57384;51.986;4.458;2023-06-10T03:02:58;21.30;45.50
38488;DHT22;57384;51.986;4.458;2023-06-10T03:05:25;21.30;45.50
38488;DHT22;57384;51.986;4.458;2023-06-10T03:07:51;21.30;45.50
38488;DHT22;57384;51.986;4.458;2023-06-10T03:10:18;21.30;45.60
38488;DHT22;57384;51.986;4.458;2023-06-10T03:12:44;21.30;45.60
38488;DHT22;57384;51.986;4.458;2023-06-10T03:15:11;21.20;45.60
38488;DHT22;57384;51.986;4.458;2023-06-10T03:17:37;21.20;45.60
38488;DHT22;57384;51.986;4.458;2023-06-10T03:20:04;21.10;45.70
38488;DHT22;57384;51.986;4.458;2023-06-10T03:22:31;21.10;45.60
38488;DHT22;57384;51.986;4.458;2023-06-10T03:25:01;21.10;45.70
38488;DHT22;57384;51.986;4.458;2023-06-10T03:27:27;21.10;45.80
38488;DHT22;57384;51.986;4.458;2023-06-10T03:29:54;21.00;45.70
38488;DHT22;57384;51.986;4.458;2023-06-10T03:32:20;21.00;45.80
38488;DHT22;57384;51.986;4.458;2023-06-10T03:34:50;21.00;45.80
38488;DHT22;57384;51.986;4.458;2023-06-10T03:37:16;20.90;45.80
38488;DHT22;57384;51.986;4.458;2023-06-10T03:39:43;20.90;45.80
38488;DHT22;57384;51.986;4.458;2023-06-10T03:42:09;20.90;46.50
38488;DHT22;57384;51.986;4.458;2023-06-10T03:44:36;20.80;45.80
38488;DHT22;57384;51.986;4.458;2023-06-10T03:47:03;20.80;45.90
38488;DHT22;57384;51.986;4.458;2023-06-10T03:49:29;20.80;45.90
38488;DHT22;57384;51.986;4.458;2023-06-10T03:51:56;20.80;45.90
38488;DHT22;57384;51.986;4.458;2023-06-10T03:54:25;20.70;45.90
38488;DHT22;57384;51.986;4.458;2023-06-10T03:56:51;20.70;46.00
38488;DHT22;57384;51.986;4.458;2023-06-10T03:59:18;20.70;46.00
38488;DHT22;57384;51.986;4.458;2023-06-10T04:01:44;20.70;46.00
38488;DHT22;57384;51.986;4.458;2023-06-10T04:04:13;20.60;46.00
38488;DHT22;57384;51.986;4.458;2023-06-10T04:06:41;20.60;46.00
38488;DHT22;57384;51.986;4.458;2023-06-10T04:09:07;20.60;46.10
38488;DHT22;57384;51.986;4.458;2023-06-10T04:11:34;20.60;46.70
38488;DHT22;57384;51.986;4.458;2023-06-10T04:14:01;20.60;46.10
38488;DHT22;57384;51.986;4.458;2023-06-10T04:16:27;20.50;46.10
38488;DHT22;57384;51.986;4.458;2023-06-10T04:18:54;20.50;46.10
38488;DHT22;57384;51.986;4.458;2023-06-10T04:21:20;20.50;46.10
38488;DHT22;57384;51.986;4.458;2023-06-10T04:23:47;20.50;46.10
38488;DHT22;57384;51.986;4.458;2023-06-10T04:26:14;20.50;46.10
38488;DHT22;57384;51.986;4.458;2023-06-10T04:28:42;20.50;46.10
38488;DHT22;57384;51.986;4.458;2023-06-10T04:31:09;20.40;46.10
38488;DHT22;57384;51.986;4.458;2023-06-10T04:33:35;20.40;46.10
38488;DHT22;57384;51.986;4.458;2023-06-10T04:36:02;20.40;46.10
38488;DHT22;57384;51.986;4.458;2023-06-10T04:38:30;20.40;46.20
38488;DHT22;57384;51.986;4.458;2023-06-10T04:40:57;20.40;46.20
38488;DHT22;57384;51.986;4.458;2023-06-10T04:43:33;20.40;46.30
38488;DHT22;57384;51.986;4.458;2023-06-10T04:46:00;20.40;46.30
38488;DHT22;57384;51.986;4.458;2023-06-10T04:48:29;20.40;46.30
38488;DHT22;57384;51.986;4.458;2023-06-10T04:50:56;20.40;46.30
38488;DHT22;57384;51.986;4.458;2023-06-10T04:53:23;20.40;46.30
38488;DHT22;57384;51.986;4.458;2023-06-10T04:55:49;20.40;46.30
38488;DHT22;57384;51.986;4.458;2023-06-10T04:58:16;20.40;46.40
38488;DHT22;57384;51.986;4.458;2023-06-10T05:00:42;20.40;46.40
38488;DHT22;57384;51.986;4.458;2023-06-10T05:03:09;20.40;46.40
38488;DHT22;57384;51.986;4.458;2023-06-10T05:05:36;20.50;46.40
38488;DHT22;57384;51.986;4.458;2023-06-10T05:08:02;20.50;46.40
38488;DHT22;57384;51.986;4.458;2023-06-10T05:10:29;20.50;46.50
38488;DHT22;57384;51.986;4.458;2023-06-10T05:12:58;20.50;46.50
38488;DHT22;57384;51.986;4.458;2023-06-10T05:15:25;20.60;46.50
38488;DHT22;57384;51.986;4.458;2023-06-10T05:17:51;20.60;46.60
38488;DHT22;57384;51.986;4.458;2023-06-10T05:20:18;20.60;46.50
38488;DHT22;57384;51.986;4.458;2023-06-10T05:22:45;20.70;46.60
38488;DHT22;57384;51.986;4.458;2023-06-10T05:25:13;20.70;46.60
38488;DHT22;57384;51.986;4.458;2023-06-10T05:27:40;20.70;46.80
38488;DHT22;57384;51.986;4.458;2023-06-10T05:30:07;20.80;46.90
38488;DHT22;57384;51.986;4.458;2023-06-10T05:32:36;20.80;46.90
38488;DHT22;57384;51.986;4.458;2023-06-10T05:35:02;20.90;46.90
38488;DHT22;57384;51.986;4.458;2023-06-10T05:37:29;21.00;47.00
38488;DHT22;57384;51.986;4.458;2023-06-10T05:39:55;20.90;46.80
38488;DHT22;57384;51.986;4.458;2023-06-10T05:42:22;21.00;46.90
38488;DHT22;57384;51.986;4.458;2023-06-10T05:44:49;21.10;46.90
38488;DHT22;57384;51.986;4.458;2023-06-10T05:47:15;21.20;47.10
38488;DHT22;57384;51.986;4.458;2023-06-10T05:49:42;21.20;47.00
38488;DHT22;57384;51.986;4.458;2023-06-10T05:52:09;21.40;47.10
38488;DHT22;57384;51.986;4.458;2023-06-10T05:54:35;21.50;47.10
38488;DHT22;57384;51.986;4.458;2023-06-10T05:57:04;21.50;47.20
38488;DHT22;57384;51.986;4.458;2023-06-10T05:59:34;21.60;47.10
38488;DHT22;57384;51.986;4.458;2023-06-10T06:02:00;21.70;47.20
38488;DHT22;57384;51.986;4.458;2023-06-10T06:04:27;21.90;47.30
38488;DHT22;57384;51.986;4.458;2023-06-10T06:06:56;22.00;47.60
38488;DHT22;57384;51.986;4.458;2023-06-10T06:09:22;22.10;47.50
38488;DHT22;57384;51.986;4.458;2023-06-10T06:11:57;22.20;47.40
38488;DHT22;57384;51.986;4.458;2023-06-10T06:14:23;22.30;47.40
38488;DHT22;57384;51.986;4.458;2023-06-10T06:16:50;22.40;47.60
38488;DHT22;57384;51.986;4.458;2023-06-10T06:19:16;22.40;47.40
38488;DHT22;57384;51.986;4.458;2023-06-10T06:21:43;22.60;47.50
38488;DHT22;57384;51.986;4.458;2023-06-10T06:24:09;22.70;47.50
38488;DHT22;57384;51.986;4.458;2023-06-10T06:26:36;22.80;47.40
38488;DHT22;57384;51.986;4.458;2023-06-10T06:29:03;22.90;47.50
38488;DHT22;57384;51.986;4.458;2023-06-10T06:31:30;22.90;47.30
38488;DHT22;57384;51.986;4.458;2023-06-10T06:33:56;23.00;47.30
38488;DHT22;57384;51.986;4.458;2023-06-10T06:36:23;23.10;47.30
38488;DHT22;57384;51.986;4.458;2023-06-10T06:38:49;23.20;47.20
38488;DHT22;57384;51.986;4.458;2023-06-10T06:41:16;23.30;47.20
38488;DHT22;57384;51.986;4.458;2023-06-10T06:43:42;23.50;47.20
38488;DHT22;57384;51.986;4.458;2023-06-10T06:46:09;23.50;47.00
38488;DHT22;57384;51.986;4.458;2023-06-10T06:48:35;23.60;47.00
38488;DHT22;57384;51.986;4.458;2023-06-10T06:51:02;23.70;46.90
38488;DHT22;57384;51.986;4.458;2023-06-10T06:53:28;23.80;46.90
38488;DHT22;57384;51.986;4.458;2023-06-10T06:55:54;23.90;46.90
38488;DHT22;57384;51.986;4.458;2023-06-10T06:58:21;24.00;46.90
38488;DHT22;57384;51.986;4.458;2023-06-10T07:00:47;24.10;46.90
38488;DHT22;57384;51.986;4.458;2023-06-10T07:03:14;24.20;46.80
38488;DHT22;57384;51.986;4.458;2023-06-10T07:05:40;24.30;46.90
38488;DHT22;57384;51.986;4.458;2023-06-10T07:08:07;24.40;46.80
38488;DHT22;57384;51.986;4.458;2023-06-10T07:10:33;24.50;46.80
38488;DHT22;57384;51.986;4.458;2023-06-10T07:13:00;24.50;46.60
38488;DHT22;57384;51.986;4.458;2023-06-10T07:15:26;24.70;46.60
38488;DHT22;57384;51.986;4.458;2023-06-10T07:17:53;24.80;46.60
38488;DHT22;57384;51.986;4.458;2023-06-10T07:20:19;24.90;46.50
38488;DHT22;57384;51.986;4.458;2023-06-10T07:22:46;25.00;46.40
38488;DHT22;57384;51.986;4.458;2023-06-10T07:25:12;25.10;46.30
38488;DHT22;57384;51.986;4.458;2023-06-10T07:27:39;25.20;46.20
38488;DHT22;57384;51.986;4.458;2023-06-10T07:30:06;25.30;46.10
38488;DHT22;57384;51.986;4.458;2023-06-10T07:32:32;25.50;46.10
38488;DHT22;57384;51.986;4.458;2023-06-10T07:34:59;25.60;46.00
38488;DHT22;57384;51.986;4.458;2023-06-10T07:37:25;25.70;45.90
38488;DHT22;57384;51.986;4.458;2023-06-10T07:39:52;25.90;45.90
38488;DHT22;57384;51.986;4.458;2023-06-10T07:42:19;26.10;45.80
38488;DHT22;57384;51.986;4.458;2023-06-10T07:44:47;26.20;45.70
38488;DHT22;57384;51.986;4.458;2023-06-10T07:47:16;26.40;45.70
38488;DHT22;57384;51.986;4.458;2023-06-10T07:49:43;26.50;45.50
38488;DHT22;57384;51.986;4.458;2023-06-10T07:52:10;26.70;45.50
38488;DHT22;57384;51.986;4.458;2023-06-10T07:54:54;26.90;45.30
38488;DHT22;57384;51.986;4.458;2023-06-10T07:57:31;27.10;45.20
38488;DHT22;57384;51.986;4.458;2023-06-10T07:59:58;27.20;45.00
38488;DHT22;57384;51.986;4.458;2023-06-10T08:02:27;27.40;44.90
38488;DHT22;57384;51.986;4.458;2023-06-10T08:04:56;27.60;44.90
38488;DHT22;57384;51.986;4.458;2023-06-10T08:07:23;27.70;44.80
38488;DHT22;57384;51.986;4.458;2023-06-10T08:09:49;27.90;44.70
38488;DHT22;57384;51.986;4.458;2023-06-10T08:12:16;28.10;44.70
38488;DHT22;57384;51.986;4.458;2023-06-10T08:14:43;28.30;44.60
38488;DHT22;57384;51.986;4.458;2023-06-10T08:17:10;28.40;44.40
38488;DHT22;57384;51.986;4.458;2023-06-10T08:19:37;28.60;44.30
38488;DHT22;57384;51.986;4.458;2023-06-10T08:22:24;28.70;44.20
38488;DHT22;57384;51.986;4.458;2023-06-10T08:24:53;28.90;44.10
38488;DHT22;57384;51.986;4.458;2023-06-10T08:27:23;29.10;44.60
38488;DHT22;57384;51.986;4.458;2023-06-10T08:29:49;29.20;43.90
38488;DHT22;57384;51.986;4.458;2023-06-10T08:32:16;29.40;43.90
38488;DHT22;57384;51.986;4.458;2023-06-10T08:34:42;29.50;43.70
38488;DHT22;57384;51.986;4.458;2023-06-10T08:37:17;29.70;43.80
38488;DHT22;57384;51.986;4.458;2023-06-10T08:39:49;29.90;43.80
38488;DHT22;57384;51.986;4.458;2023-06-10T08:42:22;30.10;43.80
38488;DHT22;57384;51.986;4.458;2023-06-10T08:44:53;30.30;43.80
38488;DHT22;57384;51.986;4.458;2023-06-10T08:47:23;30.50;43.70
38488;DHT22;57384;51.986;4.458;2023-06-10T08:49:50;30.60;43.60
38488;DHT22;57384;51.986;4.458;2023-06-10T08:52:17;30.80;43.50
38488;DHT22;57384;51.986;4.458;2023-06-10T08:54:56;30.90;43.40
38488;DHT22;57384;51.986;4.458;2023-06-10T08:57:23;31.10;43.40
38488;DHT22;57384;51.986;4.458;2023-06-10T08:59:51;31.30;43.40
38488;DHT22;57384;51.986;4.458;2023-06-10T09:02:19;31.40;43.30
38488;DHT22;57384;51.986;4.458;2023-06-10T09:04:46;31.50;43.10
38488;DHT22;57384;51.986;4.458;2023-06-10T09:07:13;31.70;43.00
38488;DHT22;57384;51.986;4.458;2023-06-10T09:09:40;31.80;42.90
38488;DHT22;57384;51.986;4.458;2023-06-10T09:12:08;32.00;42.80
38488;DHT22;57384;51.986;4.458;2023-06-10T09:14:37;32.10;42.60
38488;DHT22;57384;51.986;4.458;2023-06-10T09:17:09;32.20;42.40
38488;DHT22;57384;51.986;4.458;2023-06-10T09:19:36;32.30;42.40
38488;DHT22;57384;51.986;4.458;2023-06-10T09:22:03;32.50;42.40
38488;DHT22;57384;51.986;4.458;2023-06-10T09:24:30;32.70;42.40
38488;DHT22;57384;51.986;4.458;2023-06-10T09:27:07;32.80;42.50
38488;DHT22;57384;51.986;4.458;2023-06-10T09:29:55;33.00;42.40
38488;DHT22;57384;51.986;4.458;2023-06-10T09:32:21;33.20;42.40
38488;DHT22;57384;51.986;4.458;2023-06-10T09:34:48;33.30;42.20
38488;DHT22;57384;51.986;4.458;2023-06-10T09:37:30;33.40;41.90
38488;DHT22;57384;51.986;4.458;2023-06-10T09:42:31;33.70;41.70
38488;DHT22;57384;51.986;4.458;2023-06-10T09:44:59;33.80;41.70
38488;DHT22;57384;51.986;4.458;2023-06-10T09:47:26;33.90;41.50
38488;DHT22;57384;51.986;4.458;2023-06-10T09:49:52;33.90;41.40
38488;DHT22;57384;51.986;4.458;2023-06-10T09:52:22;34.10;41.40
38488;DHT22;57384;51.986;4.458;2023-06-10T09:54:48;34.20;41.30
38488;DHT22;57384;51.986;4.458;2023-06-10T09:57:15;34.40;41.30
38488;DHT22;57384;51.986;4.458;2023-06-10T09:59:43;34.40;41.00
38488;DHT22;57384;51.986;4.458;2023-06-10T10:02:13;34.50;40.80
38488;DHT22;57384;51.986;4.458;2023-06-10T10:04:39;34.60;40.80
38488;DHT22;57384;51.986;4.458;2023-06-10T10:07:06;34.70;40.60
38488;DHT22;57384;51.986;4.458;2023-06-10T10:09:32;34.80;40.60
38488;DHT22;57384;51.986;4.458;2023-06-10T10:11:59;35.00;40.50
38488;DHT22;57384;51.986;4.458;2023-06-10T10:14:26;35.10;40.40
38488;DHT22;57384;51.986;4.458;2023-06-10T10:16:53;35.20;40.20
38488;DHT22;57384;51.986;4.458;2023-06-10T10:19:28;35.20;40.10
38488;DHT22;57384;51.986;4.458;2023-06-10T10:21:56;35.30;40.00
38488;DHT22;57384;51.986;4.458;2023-06-10T10:24:31;35.40;39.90
38488;DHT22;57384;51.986;4.458;2023-06-10T10:26:59;35.50;39.70
38488;DHT22;57384;51.986;4.458;2023-06-10T10:31:56;35.60;39.40
38488;DHT22;57384;51.986;4.458;2023-06-10T10:34:27;35.70;39.30
38488;DHT22;57384;51.986;4.458;2023-06-10T10:36:56;35.80;39.20
38488;DHT22;57384;51.986;4.458;2023-06-10T10:39:23;35.90;39.10
38488;DHT22;57384;51.986;4.458;2023-06-10T10:41:49;36.00;39.20
38488;DHT22;57384;51.986;4.458;2023-06-10T10:44:16;36.10;38.90
38488;DHT22;57384;51.986;4.458;2023-06-10T10:46:43;36.10;38.80
38488;DHT22;57384;51.986;4.458;2023-06-10T10:49:10;36.20;38.60
38488;DHT22;57384;51.986;4.458;2023-06-10T10:51:38;36.20;38.40
38488;DHT22;57384;51.986;4.458;2023-06-10T10:54:20;36.30;38.30
38488;DHT22;57384;51.986;4.458;2023-06-10T10:59:51;36.40;38.00
38488;DHT22;57384;51.986;4.458;2023-06-10T11:02:18;36.40;37.50
38488;DHT22;57384;51.986;4.458;2023-06-10T11:04:48;36.50;37.30
38488;DHT22;57384;51.986;4.458;2023-06-10T11:07:19;36.50;37.10
38488;DHT22;57384;51.986;4.458;2023-06-10T11:15:12;36.70;36.80
38488;DHT22;57384;51.986;4.458;2023-06-10T11:23:32;36.90;36.40
38488;DHT22;57384;51.986;4.458;2023-06-10T11:26:18;37.00;36.40
38488;DHT22;57384;51.986;4.458;2023-06-10T11:31:18;37.10;36.10
38488;DHT22;57384;51.986;4.458;2023-06-10T11:33:46;37.20;36.00
38488;DHT22;57384;51.986;4.458;2023-06-10T11:36:13;37.30;35.90
38488;DHT22;57384;51.986;4.458;2023-06-10T11:38:40;37.40;35.80
38488;DHT22;57384;51.986;4.458;2023-06-10T11:41:07;37.50;35.80
38488;DHT22;57384;51.986;4.458;2023-06-10T11:43:33;37.60;35.70
38488;DHT22;57384;51.986;4.458;2023-06-10T11:46:00;37.70;35.70
38488;DHT22;57384;51.986;4.458;2023-06-10T11:48:26;37.70;35.40
38488;DHT22;57384;51.986;4.458;2023-06-10T11:50:53;37.90;35.40
38488;DHT22;57384;51.986;4.458;2023-06-10T11:53:19;38.00;35.40
38488;DHT22;57384;51.986;4.458;2023-06-10T11:55:47;38.10;35.40
38488;DHT22;57384;51.986;4.458;2023-06-10T11:58:17;38.20;35.40
38488;DHT22;57384;51.986;4.458;2023-06-10T12:00:47;38.40;35.40
38488;DHT22;57384;51.986;4.458;2023-06-10T12:03:17;38.50;35.20
38488;DHT22;57384;51.986;4.458;2023-06-10T12:05:56;38.60;35.10
38488;DHT22;57384;51.986;4.458;2023-06-10T12:08:23;38.70;34.90
38488;DHT22;57384;51.986;4.458;2023-06-10T12:10:50;38.80;34.90
38488;DHT22;57384;51.986;4.458;2023-06-10T12:22:08;39.30;34.40
38488;DHT22;57384;51.986;4.458;2023-06-10T12:36:48;40.00;34.00
38488;DHT22;57384;51.986;4.458;2023-06-10T12:39:15;40.10;33.90
38488;DHT22;57384;51.986;4.458;2023-06-10T12:41:59;40.30;33.90
38488;DHT22;57384;51.986;4.458;2023-06-10T12:44:29;40.40;33.80
38488;DHT22;57384;51.986;4.458;2023-06-10T12:46:55;40.50;33.70
38488;DHT22;57384;51.986;4.458;2023-06-10T12:49:22;40.60;33.60
38488;DHT22;57384;51.986;4.458;2023-06-10T12:51:49;40.60;33.40
38488;DHT22;57384;51.986;4.458;2023-06-10T12:54:15;40.70;33.10
38488;DHT22;57384;51.986;4.458;2023-06-10T12:56:42;40.80;32.90
38488;DHT22;57384;51.986;4.458;2023-06-10T12:59:08;40.80;32.70
38488;DHT22;57384;51.986;4.458;2023-06-10T13:01:37;40.90;32.50
38488;DHT22;57384;51.986;4.458;2023-06-10T13:04:04;41.00;32.50
38488;DHT22;57384;51.986;4.458;2023-06-10T13:06:31;41.10;32.50
38488;DHT22;57384;51.986;4.458;2023-06-10T13:08:57;41.20;32.40
38488;DHT22;57384;51.986;4.458;2023-06-10T13:11:24;41.40;32.40
38488;DHT22;57384;51.986;4.458;2023-06-10T13:13:50;41.50;32.30
38488;DHT22;57384;51.986;4.458;2023-06-10T13:16:17;41.60;32.20
38488;DHT22;57384;51.986;4.458;2023-06-10T13:18:43;41.60;31.50
38488;DHT22;57384;51.986;4.458;2023-06-10T13:21:10;41.70;31.50
38488;DHT22;57384;51.986;4.458;2023-06-10T13:23:36;41.70;31.50
38488;DHT22;57384;51.986;4.458;2023-06-10T13:26:03;41.80;31.50
38488;DHT22;57384;51.986;4.458;2023-06-10T13:28:29;41.90;31.40
38488;DHT22;57384;51.986;4.458;2023-06-10T13:30:56;41.90;31.30
38488;DHT22;57384;51.986;4.458;2023-06-10T13:33:22;42.00;31.40
38488;DHT22;57384;51.986;4.458;2023-06-10T13:35:49;42.10;31.40
38488;DHT22;57384;51.986;4.458;2023-06-10T13:38:15;42.20;31.30
38488;DHT22;57384;51.986;4.458;2023-06-10T13:40:42;42.30;31.20
38488;DHT22;57384;51.986;4.458;2023-06-10T13:43:08;42.30;31.10
38488;DHT22;57384;51.986;4.458;2023-06-10T13:45:37;42.50;31.20
38488;DHT22;57384;51.986;4.458;2023-06-10T13:48:04;42.50;31.10
38488;DHT22;57384;51.986;4.458;2023-06-10T13:50:31;42.70;31.10
38488;DHT22;57384;51.986;4.458;2023-06-10T13:52:57;42.80;31.00
38488;DHT22;57384;51.986;4.458;2023-06-10T13:55:24;42.80;31.00
38488;DHT22;57384;51.986;4.458;2023-06-10T13:57:50;43.00;31.00
38488;DHT22;57384;51.986;4.458;2023-06-10T14:00:17;43.00;30.90
38488;DHT22;57384;51.986;4.458;2023-06-10T14:02:43;43.10;30.80
38488;DHT22;57384;51.986;4.458;2023-06-10T14:05:10;43.20;30.80
38488;DHT22;57384;51.986;4.458;2023-06-10T14:07:36;43.30;30.60
38488;DHT22;57384;51.986;4.458;2023-06-10T14:10:03;43.30;30.50
38488;DHT22;57384;51.986;4.458;2023-06-10T14:12:29;43.30;30.50
38488;DHT22;57384;51.986;4.458;2023-06-10T14:14:56;43.40;30.40
38488;DHT22;57384;51.986;4.458;2023-06-10T14:17:22;43.50;30.50
38488;DHT22;57384;51.986;4.458;2023-06-10T14:19:49;43.50;30.30
38488;DHT22;57384;51.986;4.458;2023-06-10T14:22:15;43.50;30.40
38488;DHT22;57384;51.986;4.458;2023-06-10T14:24:42;43.40;30.30
38488;DHT22;57384;51.986;4.458;2023-06-10T14:27:08;43.40;30.20
38488;DHT22;57384;51.986;4.458;2023-06-10T14:29:38;43.40;30.30
38488;DHT22;57384;51.986;4.458;2023-06-10T14:32:04;43.40;30.30
38488;DHT22;57384;51.986;4.458;2023-06-10T14:34:31;43.30;30.20
38488;DHT22;57384;51.986;4.458;2023-06-10T14:36:57;43.30;30.10
38488;DHT22;57384;51.986;4.458;2023-06-10T14:39:24;43.30;30.60
38488;DHT22;57384;51.986;4.458;2023-06-10T14:41:50;43.30;30.10
38488;DHT22;57384;51.986;4.458;2023-06-10T14:44:17;43.40;30.00
38488;DHT22;57384;51.986;4.458;2023-06-10T14:46:44;43.40;29.90
38488;DHT22;57384;51.986;4.458;2023-06-10T14:49:10;43.40;29.90
38488;DHT22;57384;51.986;4.458;2023-06-10T14:51:39;43.40;29.80
38488;DHT22;57384;51.986;4.458;2023-06-10T14:54:06;43.30;29.80
38488;DHT22;57384;51.986;4.458;2023-06-10T14:56:32;43.30;29.80
38488;DHT22;57384;51.986;4.458;2023-06-10T14:58:59;43.20;29.80
38488;DHT22;57384;51.986;4.458;2023-06-10T15:01:25;43.20;29.80
38488;DHT22;57384;51.986;4.458;2023-06-10T15:03:55;43.20;29.80
38488;DHT22;57384;51.986;4.458;2023-06-10T15:06:21;43.10;29.60
38488;DHT22;57384;51.986;4.458;2023-06-10T15:08:48;43.10;29.50
38488;DHT22;57384;51.986;4.458;2023-06-10T15:11:15;43.10;29.50
38488;DHT22;57384;51.986;4.458;2023-06-10T15:13:41;43.10;30.00
38488;DHT22;57384;51.986;4.458;2023-06-10T15:16:08;43.00;29.50
38488;DHT22;57384;51.986;4.458;2023-06-10T15:18:35;42.90;29.40
38488;DHT22;57384;51.986;4.458;2023-06-10T15:21:02;42.70;29.40
38488;DHT22;57384;51.986;4.458;2023-06-10T15:23:28;42.70;29.40
38488;DHT22;57384;51.986;4.458;2023-06-10T15:25:55;42.50;29.50
38488;DHT22;57384;51.986;4.458;2023-06-10T15:28:21;42.30;29.60
38488;DHT22;57384;51.986;4.458;2023-06-10T15:30:48;42.10;29.60
38488;DHT22;57384;51.986;4.458;2023-06-10T15:33:14;41.90;29.60
38488;DHT22;57384;51.986;4.458;2023-06-10T15:35:41;41.80;29.60
38488;DHT22;57384;51.986;4.458;2023-06-10T15:38:07;41.70;29.60
38488;DHT22;57384;51.986;4.458;2023-06-10T15:40:34;41.50;29.40
38488;DHT22;57384;51.986;4.458;2023-06-10T15:43:00;41.50;29.30
38488;DHT22;57384;51.986;4.458;2023-06-10T15:45:27;41.50;29.20
38488;DHT22;57384;51.986;4.458;2023-06-10T15:47:53;41.50;29.10
38488;DHT22;57384;51.986;4.458;2023-06-10T15:50:20;41.50;29.00
38488;DHT22;57384;51.986;4.458;2023-06-10T15:52:46;41.40;29.00
38488;DHT22;57384;51.986;4.458;2023-06-10T15:55:13;41.40;29.40
38488;DHT22;57384;51.986;4.458;2023-06-10T15:57:39;41.30;28.90
38488;DHT22;57384;51.986;4.458;2023-06-10T16:00:06;41.20;29.00
38488;DHT22;57384;51.986;4.458;2023-06-10T16:02:33;41.00;29.00
38488;DHT22;57384;51.986;4.458;2023-06-10T16:04:59;40.80;29.10
38488;DHT22;57384;51.986;4.458;2023-06-10T16:07:26;40.70;29.20
38488;DHT22;57384;51.986;4.458;2023-06-10T16:09:52;40.40;29.20
38488;DHT22;57384;51.986;4.458;2023-06-10T16:12:19;40.20;29.20
38488;DHT22;57384;51.986;4.458;2023-06-10T16:14:45;40.00;29.30
38488;DHT22;57384;51.986;4.458;2023-06-10T16:17:12;39.70;29.40